sensor_id;sensor_type;location;lat;lon;timestamp;pressure;altitude;pressure_sealevel;temperature;humidity
35551;BME280;21655;46.056;13.616;2023-01-29T00:01:02;101172.84;;;2.37;100.00
35551;BME280;21655;46.056;13.616;2023-01-29T00:03:28;101171.22;;;2.34;100.00
35551;BME280;21655;46.056;13.616;2023-01-29T00:05:53;101182.47;;;2.42;100.00
35551;BME280;21655;46.056;13.616;2023-01-29T00:08:19;101177.56;;;2.47;100.00
35551;BME280;21655;46.056;13.616;2023-01-29T00:10:44;101183.06;;;2.47;100.00
35551;BME280;21655;46.056;13.616;2023-01-29T00:13:11;101185.13;;;2.44;100.00
35551;BME280;21655;46.056;13.616;2023-01-29T00:15:36;101178.84;;;2.29;100.00
35551;BME280;21655;46.056;13.616;2023-01-29T00:18:02;101179.06;;;2.26;100.00
35551;BME280;21655;46.056;13.616;2023-01-29T00:20:27;101181.03;;;2.24;100.00
35551;BME280;21655;46.056;13.616;2023-01-29T00:22:52;101182.47;;;2.17;100.00
35551;BME280;21655;46.056;13.616;2023-01-29T00:25:18;101180.50;;;2.19;100.00
35551;BME280;21655;46.056;13.616;2023-01-29T00:27:43;101180.06;;;2.13;100.00
35551;BME280;21655;46.056;13.616;2023-01-29T00:30:09;101184.44;;;2.15;100.00
35551;BME280;21655;46.056;13.616;2023-01-29T00:32:41;101182.56;;;2.16;100.00
35551;BME280;21655;46.056;13.616;2023-01-29T00:35:08;101186.97;;;2.18;100.00
35551;BME280;21655;46.056;13.616;2023-01-29T00:37:33;101188.25;;;2.25;100.00
35551;BME280;21655;46.056;13.616;2023-01-29T00:39:59;101190.25;;;2.23;100.00
35551;BME280;21655;46.056;13.616;2023-01-29T00:42:25;101193.06;;;2.22;100.00
35551;BME280;21655;46.056;13.616;2023-01-29T00:45:09;101189.38;;;2.23;100.00
35551;BME280;21655;46.056;13.616;2023-01-29T00:47:36;101192.66;;;2.28;100.00
35551;BME280;21655;46.056;13.616;2023-01-29T00:50:04;101194.63;;;2.26;100.00
35551;BME280;21655;46.056;13.616;2023-01-29T00:52:30;101198.00;;;2.29;100.00
35551;BME280;21655;46.056;13.616;2023-01-29T00:54:58;101195.72;;;2.36;100.00
35551;BME280;21655;46.056;13.616;2023-01-29T00:57:24;101198.34;;;2.37;100.00
35551;BME280;21655;46.056;13.616;2023-01-29T00:59:51;101201.84;;;2.39;100.00
35551;BME280;21655;46.056;13.616;2023-01-29T01:02:16;101192.66;;;2.40;100.00
35551;BME280;21655;46.056;13.616;2023-01-29T01:05:00;101203.59;;;2.40;100.00
35551;BME280;21655;46.056;13.616;2023-01-29T01:07:30;101193.88;;;2.36;100.00
35551;BME280;21655;46.056;13.616;2023-01-29T01:09:56;101206.66;;;2.36;100.00
35551;BME280;21655;46.056;13.616;2023-01-29T01:12:39;101201.63;;;2.42;100.00
35551;BME280;21655;46.056;13.616;2023-01-29T01:15:05;101198.25;;;2.39;100.00
35551;BME280;21655;46.056;13.616;2023-01-29T01:17:31;101200.88;;;2.40;100.00
35551;BME280;21655;46.056;13.616;2023-01-29T01:19:56;101195.41;;;2.40;100.00
35551;BME280;21655;46.056;13.616;2023-01-29T01:22:21;101198.91;;;2.42;100.00
35551;BME280;21655;46.056;13.616;2023-01-29T01:24:47;101207.41;;;2.38;100.00
35551;BME280;21655;46.056;13.616;2023-01-29T01:27:12;101210.28;;;2.36;100.00
35551;BME280;21655;46.056;13.616;2023-01-29T01:29:38;101212.03;;;2.37;100.00
35551;BME280;21655;46.056;13.616;2023-01-29T01:32:04;101215.84;;;2.35;100.00
35551;BME280;21655;46.056;13.616;2023-01-29T01:34:30;101216.97;;;2.32;100.00
35551;BME280;21655;46.056;13.616;2023-01-29T01:36:55;101209.28;;;2.37;100.00
35551;BME280;21655;46.056;13.616;2023-01-29T01:39:22;101208.22;;;2.40;100.00
35551;BME280;21655;46.056;13.616;2023-01-29T01:41:48;101209.19;;;2.39;100.00
35551;BME280;21655;46.056;13.616;2023-01-29T01:44:52;101214.44;;;2.42;100.00
35551;BME280;21655;46.056;13.616;2023-01-29T01:47:41;101208.63;;;2.46;100.00
35551;BME280;21655;46.056;13.616;2023-01-29T01:53:14;101213.03;;;2.49;100.00
35551;BME280;21655;46.056;13.616;2023-01-29T01:55:54;101205.78;;;2.48;100.00
35551;BME280;21655;46.056;13.616;2023-01-29T01:58:25;101210.19;;;2.63;100.00
35551;BME280;21655;46.056;13.616;2023-01-29T02:00:52;101204.16;;;2.58;100.00
35551;BME280;21655;46.056;13.616;2023-01-29T02:03:21;101207.44;;;2.50;100.00
35551;BME280;21655;46.056;13.616;2023-01-29T02:06:08;101210.72;;;2.55;100.00
35551;BME280;21655;46.056;13.616;2023-01-29T02:09:04;101204.03;;;2.59;100.00
35551;BME280;21655;46.056;13.616;2023-01-29T02:11:50;101204.03;;;2.59;100.00
35551;BME280;21655;46.056;13.616;2023-01-29T02:14:15;101200.88;;;2.65;100.00
35551;BME280;21655;46.056;13.616;2023-01-29T02:16:41;101202.50;;;2.68;100.00
35551;BME280;21655;46.056;13.616;2023-01-29T02:19:59;101199.66;;;2.69;100.00
35551;BME280;21655;46.056;13.616;2023-01-29T02:22:16;101203.50;;;2.67;100.00
35551;BME280;21655;46.056;13.616;2023-01-29T02:24:58;101207.13;;;2.67;100.00
35551;BME280;21655;46.056;13.616;2023-01-29T02:35:27;101215.00;;;2.84;100.00
35551;BME280;21655;46.056;13.616;2023-01-29T02:41:15;101221.09;;;3.13;100.00
35551;BME280;21655;46.056;13.616;2023-01-29T02:43:50;101220.81;;;3.28;100.00
35551;BME280;21655;46.056;13.616;2023-01-29T02:51:56;101232.09;;;3.36;100.00
35551;BME280;21655;46.056;13.616;2023-01-29T02:54:31;101233.84;;;3.37;100.00
35551;BME280;21655;46.056;13.616;2023-01-29T02:57:20;101234.72;;;3.38;100.00
35551;BME280;21655;46.056;13.616;2023-01-29T02:59:56;101234.03;;;3.47;100.00
35551;BME280;21655;46.056;13.616;2023-01-29T03:05:08;101239.19;;;3.51;100.00
35551;BME280;21655;46.056;13.616;2023-01-29T03:07:40;101235.56;;;3.51;100.00
35551;BME280;21655;46.056;13.616;2023-01-29T03:10:25;101225.59;;;3.50;100.00
35551;BME280;21655;46.056;13.616;2023-01-29T03:13:01;101227.97;;;3.54;100.00
35551;BME280;21655;46.056;13.616;2023-01-29T03:15:32;101232.38;;;3.57;100.00
35551;BME280;21655;46.056;13.616;2023-01-29T03:18:10;101236.22;;;3.54;100.00
35551;BME280;21655;46.056;13.616;2023-01-29T03:20:39;101239.22;;;3.62;100.00
35551;BME280;21655;46.056;13.616;2023-01-29T03:23:35;101241.22;;;3.60;100.00
35551;BME280;21655;46.056;13.616;2023-01-29T03:26:20;101244.34;;;3.56;100.00
35551;BME280;21655;46.056;13.616;2023-01-29T03:29:05;101234.88;;;3.60;100.00
35551;BME280;21655;46.056;13.616;2023-01-29T03:31:53;101236.41;;;3.63;100.00
35551;BME280;21655;46.056;13.616;2023-01-29T03:34:45;101237.63;;;3.60;100.00
35551;BME280;21655;46.056;13.616;2023-01-29T03:37:14;101241.34;;;3.59;100.00
35551;BME280;21655;46.056;13.616;2023-01-29T03:39:43;101238.13;;;3.64;100.00
35551;BME280;21655;46.056;13.616;2023-01-29T03:50:46;101232.06;;;3.72;100.00
35551;BME280;21655;46.056;13.616;2023-01-29T03:53:31;101230.56;;;3.68;100.00
35551;BME280;21655;46.056;13.616;2023-01-29T03:59:21;101222.63;;;3.76;100.00
35551;BME280;21655;46.056;13.616;2023-01-29T04:02:02;101231.03;;;3.85;100.00
35551;BME280;21655;46.056;13.616;2023-01-29T04:04:31;101227.41;;;3.85;100.00
35551;BME280;21655;46.056;13.616;2023-01-29T04:07:19;101233.91;;;3.84;100.00
35551;BME280;21655;46.056;13.616;2023-01-29T04:09:56;101231.50;;;3.79;100.00
35551;BME280;21655;46.056;13.616;2023-01-29T04:12:25;101232.00;;;3.84;100.00
35551;BME280;21655;46.056;13.616;2023-01-29T04:14:53;101228.66;;;3.81;100.00
35551;BME280;21655;46.056;13.616;2023-01-29T04:17:28;101235.75;;;3.83;100.00
35551;BME280;21655;46.056;13.616;2023-01-29T04:19:58;101233.16;;;3.82;100.00
35551;BME280;21655;46.056;13.616;2023-01-29T04:22:35;101221.41;;;3.80;100.00
35551;BME280;21655;46.056;13.616;2023-01-29T04:25:06;101221.28;;;3.81;100.00
35551;BME280;21655;46.056;13.616;2023-01-29T04:27:39;101228.19;;;3.87;100.00
35551;BME280;21655;46.056;13.616;2023-01-29T04:30:17;101223.97;;;3.94;100.00
35551;BME280;21655;46.056;13.616;2023-01-29T04:46:44;101226.69;;;3.94;100.00
35551;BME280;21655;46.056;13.616;2023-01-29T04:57:21;101211.78;;;3.98;100.00
35551;BME280;21655;46.056;13.616;2023-01-29T04:59:56;101205.41;;;3.97;100.00
35551;BME280;21655;46.056;13.616;2023-01-29T05:02:25;101201.91;;;3.95;100.00
35551;BME280;21655;46.056;13.616;2023-01-29T05:04:53;101212.22;;;3.92;100.00
35551;BME280;21655;46.056;13.616;2023-01-29T05:07:21;101210.25;;;3.94;100.00
35551;BME280;21655;46.056;13.616;2023-01-29T05:09:48;101216.63;;;3.94;100.00
35551;BME280;21655;46.056;13.616;2023-01-29T05:12:16;101220.34;;;3.93;100.00
35551;BME280;21655;46.056;13.616;2023-01-29T05:14:44;101225.84;;;3.93;100.00
35551;BME280;21655;46.056;13.616;2023-01-29T05:17:15;101215.38;;;3.98;100.00
35551;BME280;21655;46.056;13.616;2023-01-29T05:19:43;101209.91;;;3.98;100.00
35551;BME280;21655;46.056;13.616;2023-01-29T05:22:10;101216.50;;;3.96;100.00
35551;BME280;21655;46.056;13.616;2023-01-29T05:24:37;101227.34;;;3.97;100.00
35551;BME280;21655;46.056;13.616;2023-01-29T05:27:02;101217.28;;;3.98;100.00
35551;BME280;21655;46.056;13.616;2023-01-29T05:29:47;101221.88;;;3.97;100.00
35551;BME280;21655;46.056;13.616;2023-01-29T05:32:13;101226.69;;;3.94;100.00
35551;BME280;21655;46.056;13.616;2023-01-29T05:34:39;101224.84;;;3.94;100.00
35551;BME280;21655;46.056;13.616;2023-01-29T05:37:04;101233.72;;;3.98;100.00
35551;BME280;21655;46.056;13.616;2023-01-29T05:39:30;101225.59;;;3.96;100.00
35551;BME280;21655;46.056;13.616;2023-01-29T05:41:56;101232.97;;;3.96;100.00
35551;BME280;21655;46.056;13.616;2023-01-29T05:44:21;101234.72;;;3.97;100.00
35551;BME280;21655;46.056;13.616;2023-01-29T05:46:47;101239.31;;;3.96;100.00
35551;BME280;21655;46.056;13.616;2023-01-29T05:49:12;101231.09;;;3.96;100.00
35551;BME280;21655;46.056;13.616;2023-01-29T05:51:37;101230.09;;;3.97;100.00
35551;BME280;21655;46.056;13.616;2023-01-29T05:54:03;101224.84;;;3.94;100.00
35551;BME280;21655;46.056;13.616;2023-01-29T05:56:29;101229.34;;;3.95;100.00
35551;BME280;21655;46.056;13.616;2023-01-29T05:58:55;101231.97;;;3.97;100.00
35551;BME280;21655;46.056;13.616;2023-01-29T06:01:23;101235.56;;;3.97;100.00
35551;BME280;21655;46.056;13.616;2023-01-29T06:03:49;101247.78;;;3.93;100.00
35551;BME280;21655;46.056;13.616;2023-01-29T06:06:15;101245.16;;;3.92;100.00
35551;BME280;21655;46.056;13.616;2023-01-29T06:08:40;101252.53;;;3.91;100.00
35551;BME280;21655;46.056;13.616;2023-01-29T06:11:07;101256.13;;;3.92;100.00
35551;BME280;21655;46.056;13.616;2023-01-29T06:13:33;101258.88;;;3.92;100.00
35551;BME280;21655;46.056;13.616;2023-01-29T06:15:58;101254.38;;;3.91;100.00
35551;BME280;21655;46.056;13.616;2023-01-29T06:18:24;101247.13;;;3.90;100.00
35551;BME280;21655;46.056;13.616;2023-01-29T06:20:49;101263.84;;;3.87;100.00
35551;BME280;21655;46.056;13.616;2023-01-29T06:23:15;101247.28;;;3.88;100.00
35551;BME280;21655;46.056;13.616;2023-01-29T06:25:40;101249.88;;;3.90;100.00
35551;BME280;21655;46.056;13.616;2023-01-29T06:28:06;101254.38;;;3.91;100.00
35551;BME280;21655;46.056;13.616;2023-01-29T06:30:31;101258.88;;;3.92;100.00
35551;BME280;21655;46.056;13.616;2023-01-29T06:32:57;101263.25;;;3.94;100.00
35551;BME280;21655;46.056;13.616;2023-01-29T06:35:24;101266.66;;;3.98;100.00
35551;BME280;21655;46.056;13.616;2023-01-29T06:37:50;101266.50;;;3.99;100.00
35551;BME280;21655;46.056;13.616;2023-01-29T06:40:15;101274.88;;;3.98;100.00
35551;BME280;21655;46.056;13.616;2023-01-29T06:42:40;101277.38;;;4.01;100.00
35551;BME280;21655;46.056;13.616;2023-01-29T06:45:06;101274.50;;;4.02;100.00
35551;BME280;21655;46.056;13.616;2023-01-29T06:47:32;101273.66;;;4.02;100.00
35551;BME280;21655;46.056;13.616;2023-01-29T06:49:57;101272.31;;;4.07;100.00
35551;BME280;21655;46.056;13.616;2023-01-29T06:52:23;101270.84;;;4.14;100.00
35551;BME280;21655;46.056;13.616;2023-01-29T06:54:53;101286.44;;;4.14;100.00
35551;BME280;21655;46.056;13.616;2023-01-29T06:57:18;101292.28;;;4.09;100.00
35551;BME280;21655;46.056;13.616;2023-01-29T06:59:44;101287.53;;;4.11;100.00
35551;BME280;21655;46.056;13.616;2023-01-29T07:02:09;101294.44;;;4.17;100.00
35551;BME280;21655;46.056;13.616;2023-01-29T07:04:35;101297.03;;;4.18;100.00
35551;BME280;21655;46.056;13.616;2023-01-29T07:07:02;101294.84;;;4.23;100.00
35551;BME280;21655;46.056;13.616;2023-01-29T07:09:27;101293.34;;;4.30;100.00
35551;BME280;21655;46.056;13.616;2023-01-29T07:11:53;101302.41;;;4.43;100.00
35551;BME280;21655;46.056;13.616;2023-01-29T07:14:18;101310.88;;;4.40;100.00
35551;BME280;21655;46.056;13.616;2023-01-29T07:16:46;101319.22;;;4.39;100.00
35551;BME280;21655;46.056;13.616;2023-01-29T07:19:12;101316.25;;;4.42;100.00
35551;BME280;21655;46.056;13.616;2023-01-29T07:21:37;101327.22;;;4.42;100.00
35551;BME280;21655;46.056;13.616;2023-01-29T07:24:03;101318.78;;;4.45;100.00
35551;BME280;21655;46.056;13.616;2023-01-29T07:26:29;101337.50;;;4.51;100.00
35551;BME280;21655;46.056;13.616;2023-01-29T07:28:54;101326.03;;;4.57;100.00
35551;BME280;21655;46.056;13.616;2023-01-29T07:31:19;101329.94;;;4.65;100.00
35551;BME280;21655;46.056;13.616;2023-01-29T07:33:45;101341.16;;;4.62;100.00
35551;BME280;21655;46.056;13.616;2023-01-29T07:36:12;101329.69;;;4.68;100.00
35551;BME280;21655;46.056;13.616;2023-01-29T07:38:37;101338.81;;;4.69;100.00
35551;BME280;21655;46.056;13.616;2023-01-29T07:41:03;101337.31;;;4.65;100.00
35551;BME280;21655;46.056;13.616;2023-01-29T07:43:29;101340.06;;;4.65;100.00
35551;BME280;21655;46.056;13.616;2023-01-29T07:45:54;101342.31;;;4.71;100.00
35551;BME280;21655;46.056;13.616;2023-01-29T07:48:20;101344.59;;;4.77;100.00
35551;BME280;21655;46.056;13.616;2023-01-29T07:50:53;101326.00;;;4.80;100.00
35551;BME280;21655;46.056;13.616;2023-01-29T07:53:19;101340.13;;;4.87;100.00
35551;BME280;21655;46.056;13.616;2023-01-29T07:55:45;101337.44;;;4.98;100.00
35551;BME280;21655;46.056;13.616;2023-01-29T07:58:10;101333.44;;;5.02;100.00
35551;BME280;21655;46.056;13.616;2023-01-29T08:00:36;101332.97;;;5.19;100.00
35551;BME280;21655;46.056;13.616;2023-01-29T08:03:06;101335.00;;;5.28;100.00
35551;BME280;21655;46.056;13.616;2023-01-29T08:05:32;101338.22;;;5.33;100.00
35551;BME280;21655;46.056;13.616;2023-01-29T08:07:57;101334.22;;;5.37;100.00
35551;BME280;21655;46.056;13.616;2023-01-29T08:10:23;101342.00;;;5.64;100.00
35551;BME280;21655;46.056;13.616;2023-01-29T08:12:59;101342.38;;;5.82;100.00
35551;BME280;21655;46.056;13.616;2023-01-29T08:15:25;101342.75;;;6.10;100.00
35551;BME280;21655;46.056;13.616;2023-01-29T08:17:51;101347.34;;;6.21;100.00
35551;BME280;21655;46.056;13.616;2023-01-29T08:20:18;101346.44;;;6.63;100.00
35551;BME280;21655;46.056;13.616;2023-01-29T08:22:43;101351.75;;;6.75;100.00
35551;BME280;21655;46.056;13.616;2023-01-29T08:25:09;101352.09;;;6.61;100.00
35551;BME280;21655;46.056;13.616;2023-01-29T08:27:35;101352.72;;;6.22;100.00
35551;BME280;21655;46.056;13.616;2023-01-29T08:30:01;101352.50;;;6.14;100.00
35551;BME280;21655;46.056;13.616;2023-01-29T08:32:26;101351.50;;;6.04;100.00
35551;BME280;21655;46.056;13.616;2023-01-29T08:34:51;101340.91;;;7.15;100.00
35551;BME280;21655;46.056;13.616;2023-01-29T08:37:17;101323.47;;;12.43;81.41
35551;BME280;21655;46.056;13.616;2023-01-29T08:39:42;101327.69;;;14.22;61.09
35551;BME280;21655;46.056;13.616;2023-01-29T08:42:08;101323.88;;;16.03;53.37
35551;BME280;21655;46.056;13.616;2023-01-29T08:44:33;101323.41;;;16.57;48.14
35551;BME280;21655;46.056;13.616;2023-01-29T08:46:58;101325.88;;;15.80;48.20
35551;BME280;21655;46.056;13.616;2023-01-29T08:49:24;101326.97;;;15.93;46.52
35551;BME280;21655;46.056;13.616;2023-01-29T08:51:49;101323.84;;;17.73;44.21
35551;BME280;21655;46.056;13.616;2023-01-29T08:54:18;101329.25;;;17.75;42.38
35551;BME280;21655;46.056;13.616;2023-01-29T08:56:43;101320.38;;;17.99;41.54
35551;BME280;21655;46.056;13.616;2023-01-29T08:59:09;101332.09;;;16.19;43.64
35551;BME280;21655;46.056;13.616;2023-01-29T09:01:35;101327.25;;;16.71;43.11
35551;BME280;21655;46.056;13.616;2023-01-29T09:04:00;101341.38;;;17.54;41.92
35551;BME280;21655;46.056;13.616;2023-01-29T09:06:26;101342.47;;;17.81;40.54
35551;BME280;21655;46.056;13.616;2023-01-29T09:08:51;101335.47;;;18.25;40.21
35551;BME280;21655;46.056;13.616;2023-01-29T09:11:16;101334.13;;;18.21;39.23
35551;BME280;21655;46.056;13.616;2023-01-29T09:13:42;101332.41;;;16.88;40.63
35551;BME280;21655;46.056;13.616;2023-01-29T09:16:08;101337.53;;;17.20;41.48
35551;BME280;21655;46.056;13.616;2023-01-29T09:18:33;101350.13;;;17.93;39.42
35551;BME280;21655;46.056;13.616;2023-01-29T09:20:59;101339.41;;;17.76;39.94
35551;BME280;21655;46.056;13.616;2023-01-29T09:23:27;101342.59;;;17.10;39.50
35551;BME280;21655;46.056;13.616;2023-01-29T09:25:52;101342.25;;;18.71;37.59
35551;BME280;21655;46.056;13.616;2023-01-29T09:28:17;101338.94;;;18.61;37.64
35551;BME280;21655;46.056;13.616;2023-01-29T09:30:43;101338.69;;;17.67;38.73
35551;BME280;21655;46.056;13.616;2023-01-29T09:33:09;101338.31;;;16.79;39.52
35551;BME280;21655;46.056;13.616;2023-01-29T09:35:34;101345.59;;;17.92;39.20
35551;BME280;21655;46.056;13.616;2023-01-29T09:38:00;101334.38;;;18.26;38.36
35551;BME280;21655;46.056;13.616;2023-01-29T09:43:25;101332.94;;;19.17;37.10
35551;BME280;21655;46.056;13.616;2023-01-29T09:46:00;101332.44;;;19.01;36.13
35551;BME280;21655;46.056;13.616;2023-01-29T09:48:31;101344.69;;;17.85;38.02
35551;BME280;21655;46.056;13.616;2023-01-29T09:51:02;101338.81;;;18.08;36.76
35551;BME280;21655;46.056;13.616;2023-01-29T09:53:35;101334.97;;;17.39;38.74
35551;BME280;21655;46.056;13.616;2023-01-29T09:56:29;101337.75;;;17.81;38.01
35551;BME280;21655;46.056;13.616;2023-01-29T09:58:57;101339.81;;;17.52;37.95
35551;BME280;21655;46.056;13.616;2023-01-29T10:01:40;101329.94;;;18.79;37.09
35551;BME280;21655;46.056;13.616;2023-01-29T10:04:22;101329.31;;;18.09;36.89
35551;BME280;21655;46.056;13.616;2023-01-29T10:07:16;101323.97;;;17.38;38.54
35551;BME280;21655;46.056;13.616;2023-01-29T10:12:49;101325.00;;;18.13;36.87
35551;BME280;21655;46.056;13.616;2023-01-29T10:15:49;101311.78;;;18.75;36.34
35551;BME280;21655;46.056;13.616;2023-01-29T10:21:23;101312.78;;;17.44;37.69
35551;BME280;21655;46.056;13.616;2023-01-29T10:26:22;101311.84;;;17.16;38.38
35551;BME280;21655;46.056;13.616;2023-01-29T10:28:51;101301.88;;;17.77;38.17
35551;BME280;21655;46.056;13.616;2023-01-29T10:33:59;101295.78;;;18.01;37.32
35551;BME280;21655;46.056;13.616;2023-01-29T10:36:48;101292.63;;;17.55;37.72
35551;BME280;21655;46.056;13.616;2023-01-29T10:39:17;101290.72;;;16.43;38.36
35551;BME280;21655;46.056;13.616;2023-01-29T10:52:50;101266.31;;;16.94;38.84
35551;BME280;21655;46.056;13.616;2023-01-29T11:00:39;101259.31;;;15.61;41.18
35551;BME280;21655;46.056;13.616;2023-01-29T11:03:18;101245.44;;;16.11;40.54
35551;BME280;21655;46.056;13.616;2023-01-29T11:06:08;101249.63;;;14.90;41.65
35551;BME280;21655;46.056;13.616;2023-01-29T11:11:32;101244.53;;;15.38;41.80
35551;BME280;21655;46.056;13.616;2023-01-29T11:14:04;101243.97;;;15.57;41.85
35551;BME280;21655;46.056;13.616;2023-01-29T11:16:42;101237.97;;;16.32;40.22
35551;BME280;21655;46.056;13.616;2023-01-29T11:19:09;101238.25;;;14.77;41.60
35551;BME280;21655;46.056;13.616;2023-01-29T11:24:15;101232.16;;;13.66;44.36
35551;BME280;21655;46.056;13.616;2023-01-29T11:26:42;101217.94;;;14.60;43.71
35551;BME280;21655;46.056;13.616;2023-01-29T11:29:39;101211.88;;;15.67;41.74
35551;BME280;21655;46.056;13.616;2023-01-29T11:37:42;101197.78;;;17.17;39.31
35551;BME280;21655;46.056;13.616;2023-01-29T11:42:44;101199.47;;;16.91;39.00
35551;BME280;21655;46.056;13.616;2023-01-29T11:45:27;101191.63;;;15.65;40.21
35551;BME280;21655;46.056;13.616;2023-01-29T11:47:55;101190.13;;;16.13;40.97
35551;BME280;21655;46.056;13.616;2023-01-29T11:50:29;101187.75;;;17.29;39.58
35551;BME280;21655;46.056;13.616;2023-01-29T11:52:55;101190.81;;;17.34;39.34
35551;BME280;21655;46.056;13.616;2023-01-29T11:55:25;101180.63;;;16.64;39.98
35551;BME280;21655;46.056;13.616;2023-01-29T11:58:10;101180.31;;;16.94;38.36
35551;BME280;21655;46.056;13.616;2023-01-29T12:00:39;101179.84;;;17.66;38.36
35551;BME280;21655;46.056;13.616;2023-01-29T12:03:28;101171.78;;;16.81;39.21
35551;BME280;21655;46.056;13.616;2023-01-29T12:05:59;101173.78;;;15.95;40.05
35551;BME280;21655;46.056;13.616;2023-01-29T12:08:33;101167.34;;;16.66;39.90
35551;BME280;21655;46.056;13.616;2023-01-29T12:11:29;101163.19;;;16.62;39.54
35551;BME280;21655;46.056;13.616;2023-01-29T12:14:01;101163.66;;;16.65;39.11
35551;BME280;21655;46.056;13.616;2023-01-29T12:16:29;101165.50;;;15.29;40.95
35551;BME280;21655;46.056;13.616;2023-01-29T12:19:10;101157.97;;;15.59;41.20
35551;BME280;21655;46.056;13.616;2023-01-29T12:21:58;101159.72;;;15.45;41.15
35551;BME280;21655;46.056;13.616;2023-01-29T12:29:55;101152.63;;;15.93;40.33
35551;BME280;21655;46.056;13.616;2023-01-29T12:35:28;101155.38;;;17.88;38.04
35551;BME280;21655;46.056;13.616;2023-01-29T12:40:29;101146.06;;;17.47;37.69
35551;BME280;21655;46.056;13.616;2023-01-29T12:43:02;101133.34;;;16.33;39.14
35551;BME280;21655;46.056;13.616;2023-01-29T12:45:29;101128.78;;;16.11;39.60
35551;BME280;21655;46.056;13.616;2023-01-29T12:47:59;101121.84;;;16.43;40.31
35551;BME280;21655;46.056;13.616;2023-01-29T12:50:36;101127.84;;;16.82;39.45
35551;BME280;21655;46.056;13.616;2023-01-29T12:53:31;101128.50;;;16.84;39.19
35551;BME280;21655;46.056;13.616;2023-01-29T12:56:08;101128.97;;;17.76;38.33
35551;BME280;21655;46.056;13.616;2023-01-29T12:58:41;101121.94;;;17.25;38.49
35551;BME280;21655;46.056;13.616;2023-01-29T13:01:14;101129.22;;;17.19;38.51
35551;BME280;21655;46.056;13.616;2023-01-29T13:03:52;101141.72;;;17.44;37.83
35551;BME280;21655;46.056;13.616;2023-01-29T13:06:30;101143.97;;;17.28;38.96
35551;BME280;21655;46.056;13.616;2023-01-29T13:09:04;101147.06;;;17.12;39.00
35551;BME280;21655;46.056;13.616;2023-01-29T13:11:39;101143.00;;;15.81;40.07
35551;BME280;21655;46.056;13.616;2023-01-29T13:14:21;101133.06;;;15.20;41.67
35551;BME280;21655;46.056;13.616;2023-01-29T13:16:52;101114.84;;;15.10;41.68
35551;BME280;21655;46.056;13.616;2023-01-29T13:19:26;101097.53;;;16.29;41.04
35551;BME280;21655;46.056;13.616;2023-01-29T13:21:55;101107.47;;;15.96;40.65
35551;BME280;21655;46.056;13.616;2023-01-29T13:24:24;101114.72;;;16.05;40.76
35551;BME280;21655;46.056;13.616;2023-01-29T13:26:52;101105.44;;;16.40;40.19
35551;BME280;21655;46.056;13.616;2023-01-29T13:29:27;101104.78;;;15.67;40.86
35551;BME280;21655;46.056;13.616;2023-01-29T13:31:58;101111.50;;;16.08;39.60
35551;BME280;21655;46.056;13.616;2023-01-29T13:34:29;101114.66;;;15.84;40.70
35551;BME280;21655;46.056;13.616;2023-01-29T13:36:58;101114.44;;;16.35;40.53
35551;BME280;21655;46.056;13.616;2023-01-29T13:39:30;101109.66;;;15.65;40.87
35551;BME280;21655;46.056;13.616;2023-01-29T13:41:58;101097.81;;;16.34;40.47
35551;BME280;21655;46.056;13.616;2023-01-29T13:44:27;101101.06;;;14.94;42.17
35551;BME280;21655;46.056;13.616;2023-01-29T13:46:56;101104.09;;;15.50;41.58
35551;BME280;21655;46.056;13.616;2023-01-29T13:49:30;101104.63;;;16.46;40.64
35551;BME280;21655;46.056;13.616;2023-01-29T13:51:58;101098.88;;;15.76;41.28
35551;BME280;21655;46.056;13.616;2023-01-29T13:54:38;101090.69;;;15.60;41.23
35551;BME280;21655;46.056;13.616;2023-01-29T13:57:03;101095.53;;;16.23;41.30
35551;BME280;21655;46.056;13.616;2023-01-29T13:59:52;101096.53;;;15.80;41.15
35551;BME280;21655;46.056;13.616;2023-01-29T14:02:29;101090.88;;;15.59;41.59
35551;BME280;21655;46.056;13.616;2023-01-29T14:07:55;101081.75;;;14.70;43.04
35551;BME280;21655;46.056;13.616;2023-01-29T14:10:22;101077.47;;;15.54;42.20
35551;BME280;21655;46.056;13.616;2023-01-29T14:12:52;101077.59;;;15.46;41.73
35551;BME280;21655;46.056;13.616;2023-01-29T14:18:21;101074.91;;;14.73;42.63
35551;BME280;21655;46.056;13.616;2023-01-29T14:26:31;101083.03;;;14.23;44.95
35551;BME280;21655;46.056;13.616;2023-01-29T14:31:35;101078.13;;;14.25;44.49
35551;BME280;21655;46.056;13.616;2023-01-29T14:34:02;101091.59;;;13.22;46.16
35551;BME280;21655;46.056;13.616;2023-01-29T14:36:31;101086.97;;;12.91;46.20
35551;BME280;21655;46.056;13.616;2023-01-29T14:39:03;101090.13;;;12.96;47.14
35551;BME280;21655;46.056;13.616;2023-01-29T14:41:31;101085.81;;;12.77;47.60
35551;BME280;21655;46.056;13.616;2023-01-29T14:47:00;101085.28;;;12.50;47.66
35551;BME280;21655;46.056;13.616;2023-01-29T14:52:13;101087.03;;;12.03;49.60
35551;BME280;21655;46.056;13.616;2023-01-29T14:54:40;101087.84;;;11.63;51.22
35551;BME280;21655;46.056;13.616;2023-01-29T14:57:10;101095.63;;;11.60;51.75
35551;BME280;21655;46.056;13.616;2023-01-29T14:59:52;101090.28;;;11.33;51.90
35551;BME280;21655;46.056;13.616;2023-01-29T15:02:23;101091.00;;;11.02;52.53
35551;BME280;21655;46.056;13.616;2023-01-29T15:04:56;101097.63;;;10.75;53.51
35551;BME280;21655;46.056;13.616;2023-01-29T15:10:18;101094.88;;;10.58;54.80
35551;BME280;21655;46.056;13.616;2023-01-29T15:15:36;101092.41;;;9.77;58.36